sensor_id;sensor_type;location;lat;lon;timestamp;temperature;humidity
16402;DHT22;8310;44.626;11.176;2023-03-01T00:01:16;7.60;67.70
16402;DHT22;8310;44.626;11.176;2023-03-01T00:03:44;7.50;67.60
16402;DHT22;8310;44.626;11.176;2023-03-01T00:06:12;7.50;67.60
16402;DHT22;8310;44.626;11.176;2023-03-01T00:08:40;7.50;67.60
16402;DHT22;8310;44.626;11.176;2023-03-01T00:11:10;7.50;67.60
16402;DHT22;8310;44.626;11.176;2023-03-01T00:13:41;7.50;67.60
16402;DHT22;8310;44.626;11.176;2023-03-01T00:16:10;7.50;67.70
16402;DHT22;8310;44.626;11.176;2023-03-01T00:18:38;7.50;67.60
16402;DHT22;8310;44.626;11.176;2023-03-01T00:21:06;7.50;67.60
16402;DHT22;8310;44.626;11.176;2023-03-01T00:23:34;7.40;67.50
16402;DHT22;8310;44.626;11.176;2023-03-01T00:26:05;7.40;67.40
16402;DHT22;8310;44.626;11.176;2023-03-01T00:28:34;7.40;67.40
16402;DHT22;8310;44.626;11.176;2023-03-01T00:31:05;7.40;67.40
16402;DHT22;8310;44.626;11.176;2023-03-01T00:33:33;7.40;67.30
16402;DHT22;8310;44.626;11.176;2023-03-01T00:36:01;7.30;67.30
16402;DHT22;8310;44.626;11.176;2023-03-01T00:38:29;7.30;67.30
16402;DHT22;8310;44.626;11.176;2023-03-01T00:41:03;7.30;67.30
16402;DHT22;8310;44.626;11.176;2023-03-01T00:43:31;7.30;67.30
16402;DHT22;8310;44.626;11.176;2023-03-01T00:46:04;7.30;67.40
16402;DHT22;8310;44.626;11.176;2023-03-01T00:48:32;7.30;67.50
16402;DHT22;8310;44.626;11.176;2023-03-01T00:51:05;7.30;67.50
16402;DHT22;8310;44.626;11.176;2023-03-01T00:53:33;7.30;67.50
16402;DHT22;8310;44.626;11.176;2023-03-01T00:56:00;7.30;67.50
16402;DHT22;8310;44.626;11.176;2023-03-01T00:58:29;7.30;67.50
16402;DHT22;8310;44.626;11.176;2023-03-01T01:00:56;7.30;67.50
16402;DHT22;8310;44.626;11.176;2023-03-01T01:03:26;7.20;67.40
16402;DHT22;8310;44.626;11.176;2023-03-01T01:05:54;7.20;67.50
16402;DHT22;8310;44.626;11.176;2023-03-01T01:08:22;7.20;68.20
16402;DHT22;8310;44.626;11.176;2023-03-01T01:10:49;7.20;67.50
16402;DHT22;8310;44.626;11.176;2023-03-01T01:13:17;7.20;67.50
16402;DHT22;8310;44.626;11.176;2023-03-01T01:15:45;7.20;67.60
16402;DHT22;8310;44.626;11.176;2023-03-01T01:18:13;7.20;67.60
16402;DHT22;8310;44.626;11.176;2023-03-01T01:20:42;7.20;67.50
16402;DHT22;8310;44.626;11.176;2023-03-01T01:23:10;7.10;67.40
16402;DHT22;8310;44.626;11.176;2023-03-01T01:25:37;7.10;67.50
16402;DHT22;8310;44.626;11.176;2023-03-01T01:28:05;7.10;67.50
16402;DHT22;8310;44.626;11.176;2023-03-01T01:30:33;7.10;67.40
16402;DHT22;8310;44.626;11.176;2023-03-01T01:33:00;7.10;67.40
16402;DHT22;8310;44.626;11.176;2023-03-01T01:35:28;7.10;67.40
16402;DHT22;8310;44.626;11.176;2023-03-01T01:37:57;7.10;67.30
16402;DHT22;8310;44.626;11.176;2023-03-01T01:40:25;7.10;67.30
16402;DHT22;8310;44.626;11.176;2023-03-01T01:42:52;7.10;67.40
16402;DHT22;8310;44.626;11.176;2023-03-01T01:45:32;7.10;67.40
16402;DHT22;8310;44.626;11.176;2023-03-01T01:48:03;7.10;67.40
16402;DHT22;8310;44.626;11.176;2023-03-01T01:50:32;7.10;67.40
16402;DHT22;8310;44.626;11.176;2023-03-01T01:53:08;7.10;67.40
16402;DHT22;8310;44.626;11.176;2023-03-01T01:55:39;7.10;67.30
16402;DHT22;8310;44.626;11.176;2023-03-01T01:58:10;7.00;67.30
16402;DHT22;8310;44.626;11.176;2023-03-01T02:00:38;7.00;67.40
16402;DHT22;8310;44.626;11.176;2023-03-01T02:03:10;7.00;67.30
16402;DHT22;8310;44.626;11.176;2023-03-01T02:05:42;7.00;67.40
16402;DHT22;8310;44.626;11.176;2023-03-01T02:08:14;7.00;67.40
16402;DHT22;8310;44.626;11.176;2023-03-01T02:10:44;7.00;67.40
16402;DHT22;8310;44.626;11.176;2023-03-01T02:13:12;6.90;67.30
16402;DHT22;8310;44.626;11.176;2023-03-01T02:15:40;6.90;67.40
16402;DHT22;8310;44.626;11.176;2023-03-01T02:18:11;6.90;67.40
16402;DHT22;8310;44.626;11.176;2023-03-01T02:20:47;6.90;67.30
16402;DHT22;8310;44.626;11.176;2023-03-01T02:23:18;6.90;67.40
16402;DHT22;8310;44.626;11.176;2023-03-01T02:25:52;6.90;67.40
16402;DHT22;8310;44.626;11.176;2023-03-01T02:28:30;6.90;67.40
16402;DHT22;8310;44.626;11.176;2023-03-01T02:30:58;6.80;67.30
16402;DHT22;8310;44.626;11.176;2023-03-01T02:33:44;6.80;67.20
16402;DHT22;8310;44.626;11.176;2023-03-01T02:36:17;6.80;67.20
16402;DHT22;8310;44.626;11.176;2023-03-01T02:38:46;6.80;67.30
16402;DHT22;8310;44.626;11.176;2023-03-01T02:41:15;6.80;67.30
16402;DHT22;8310;44.626;11.176;2023-03-01T02:43:44;6.80;68.20
16402;DHT22;8310;44.626;11.176;2023-03-01T02:46:14;6.80;67.40
16402;DHT22;8310;44.626;11.176;2023-03-01T02:48:42;6.80;67.40
16402;DHT22;8310;44.626;11.176;2023-03-01T02:51:12;6.80;67.50
16402;DHT22;8310;44.626;11.176;2023-03-01T02:53:45;6.80;67.50
16402;DHT22;8310;44.626;11.176;2023-03-01T02:56:16;6.70;67.90
16402;DHT22;8310;44.626;11.176;2023-03-01T02:58:45;6.70;68.60
16402;DHT22;8310;44.626;11.176;2023-03-01T03:01:16;6.70;69.40
16402;DHT22;8310;44.626;11.176;2023-03-01T03:03:44;6.60;70.40
16402;DHT22;8310;44.626;11.176;2023-03-01T03:06:11;6.50;69.80
16402;DHT22;8310;44.626;11.176;2023-03-01T03:08:38;6.50;70.60
16402;DHT22;8310;44.626;11.176;2023-03-01T03:11:06;6.50;71.00
16402;DHT22;8310;44.626;11.176;2023-03-01T03:13:34;6.50;70.70
16402;DHT22;8310;44.626;11.176;2023-03-01T03:16:03;6.40;71.40
16402;DHT22;8310;44.626;11.176;2023-03-01T03:18:31;6.40;71.20
16402;DHT22;8310;44.626;11.176;2023-03-01T03:20:58;6.40;70.90
16402;DHT22;8310;44.626;11.176;2023-03-01T03:23:26;6.40;70.40
16402;DHT22;8310;44.626;11.176;2023-03-01T03:25:55;6.40;70.10
16402;DHT22;8310;44.626;11.176;2023-03-01T03:28:22;6.40;70.90
16402;DHT22;8310;44.626;11.176;2023-03-01T03:30:50;6.40;71.00
16402;DHT22;8310;44.626;11.176;2023-03-01T03:33:18;6.40;70.80
16402;DHT22;8310;44.626;11.176;2023-03-01T03:35:48;6.40;70.20
16402;DHT22;8310;44.626;11.176;2023-03-01T03:38:17;6.40;69.30
16402;DHT22;8310;44.626;11.176;2023-03-01T03:40:49;6.40;70.00
16402;DHT22;8310;44.626;11.176;2023-03-01T03:43:20;6.40;70.00
16402;DHT22;8310;44.626;11.176;2023-03-01T03:45:50;6.40;69.80
16402;DHT22;8310;44.626;11.176;2023-03-01T03:48:19;6.40;69.10
16402;DHT22;8310;44.626;11.176;2023-03-01T03:50:49;6.40;69.20
16402;DHT22;8310;44.626;11.176;2023-03-01T03:53:17;6.40;68.90
16402;DHT22;8310;44.626;11.176;2023-03-01T03:55:45;6.40;69.10
16402;DHT22;8310;44.626;11.176;2023-03-01T03:58:15;6.40;69.10
16402;DHT22;8310;44.626;11.176;2023-03-01T04:00:46;6.40;68.70
16402;DHT22;8310;44.626;11.176;2023-03-01T04:03:16;6.40;68.70
16402;DHT22;8310;44.626;11.176;2023-03-01T04:05:46;6.40;69.20
16402;DHT22;8310;44.626;11.176;2023-03-01T04:08:15;6.40;69.30
16402;DHT22;8310;44.626;11.176;2023-03-01T04:10:46;6.40;69.50
16402;DHT22;8310;44.626;11.176;2023-03-01T04:13:16;6.40;70.00
16402;DHT22;8310;44.626;11.176;2023-03-01T04:15:45;6.40;69.20
16402;DHT22;8310;44.626;11.176;2023-03-01T04:18:13;6.40;69.30
16402;DHT22;8310;44.626;11.176;2023-03-01T04:20:42;6.40;69.00
16402;DHT22;8310;44.626;11.176;2023-03-01T04:23:14;6.40;69.10
16402;DHT22;8310;44.626;11.176;2023-03-01T04:25:46;6.40;69.20
16402;DHT22;8310;44.626;11.176;2023-03-01T04:28:19;6.40;68.80
16402;DHT22;8310;44.626;11.176;2023-03-01T04:30:46;6.40;68.70
16402;DHT22;8310;44.626;11.176;2023-03-01T04:33:14;6.40;69.10
16402;DHT22;8310;44.626;11.176;2023-03-01T04:35:41;6.40;69.30
16402;DHT22;8310;44.626;11.176;2023-03-01T04:38:09;6.40;70.30
16402;DHT22;8310;44.626;11.176;2023-03-01T04:40:39;6.40;70.20
16402;DHT22;8310;44.626;11.176;2023-03-01T04:43:09;6.40;69.50
16402;DHT22;8310;44.626;11.176;2023-03-01T04:45:37;6.40;69.30
16402;DHT22;8310;44.626;11.176;2023-03-01T04:48:05;6.40;69.80
16402;DHT22;8310;44.626;11.176;2023-03-01T04:50:33;6.40;69.60
16402;DHT22;8310;44.626;11.176;2023-03-01T04:53:02;6.40;69.90
16402;DHT22;8310;44.626;11.176;2023-03-01T04:55:30;6.30;70.70
16402;DHT22;8310;44.626;11.176;2023-03-01T04:57:59;6.30;70.00
16402;DHT22;8310;44.626;11.176;2023-03-01T05:00:26;6.40;69.60
16402;DHT22;8310;44.626;11.176;2023-03-01T05:02:55;6.30;69.10
16402;DHT22;8310;44.626;11.176;2023-03-01T05:05:25;6.30;68.80
16402;DHT22;8310;44.626;11.176;2023-03-01T05:07:55;6.40;68.80
16402;DHT22;8310;44.626;11.176;2023-03-01T05:10:23;6.40;68.90
16402;DHT22;8310;44.626;11.176;2023-03-01T05:12:50;6.40;69.10
16402;DHT22;8310;44.626;11.176;2023-03-01T05:15:20;6.40;70.40
16402;DHT22;8310;44.626;11.176;2023-03-01T05:17:51;6.30;69.80
16402;DHT22;8310;44.626;11.176;2023-03-01T05:20:19;6.30;71.30
16402;DHT22;8310;44.626;11.176;2023-03-01T05:22:48;6.30;71.00
16402;DHT22;8310;44.626;11.176;2023-03-01T05:25:16;6.30;71.90
16402;DHT22;8310;44.626;11.176;2023-03-01T05:27:44;6.20;71.90
16402;DHT22;8310;44.626;11.176;2023-03-01T05:30:12;6.20;72.70
16402;DHT22;8310;44.626;11.176;2023-03-01T05:33:08;6.20;72.70
16402;DHT22;8310;44.626;11.176;2023-03-01T05:35:39;6.20;73.20
16402;DHT22;8310;44.626;11.176;2023-03-01T05:38:08;6.10;73.40
16402;DHT22;8310;44.626;11.176;2023-03-01T05:40:39;6.10;73.50
16402;DHT22;8310;44.626;11.176;2023-03-01T05:43:07;6.10;73.40
16402;DHT22;8310;44.626;11.176;2023-03-01T05:45:36;6.10;74.00
16402;DHT22;8310;44.626;11.176;2023-03-01T05:48:04;6.10;74.00
16402;DHT22;8310;44.626;11.176;2023-03-01T05:50:35;6.10;74.00
16402;DHT22;8310;44.626;11.176;2023-03-01T05:53:05;6.10;74.70
16402;DHT22;8310;44.626;11.176;2023-03-01T05:55:34;6.10;74.50
16402;DHT22;8310;44.626;11.176;2023-03-01T05:58:04;6.00;75.30
16402;DHT22;8310;44.626;11.176;2023-03-01T06:00:31;6.00;75.00
16402;DHT22;8310;44.626;11.176;2023-03-01T06:03:00;6.00;75.30
16402;DHT22;8310;44.626;11.176;2023-03-01T06:05:28;6.00;74.50
16402;DHT22;8310;44.626;11.176;2023-03-01T06:08:00;6.00;74.90
16402;DHT22;8310;44.626;11.176;2023-03-01T06:10:28;6.00;73.60
16402;DHT22;8310;44.626;11.176;2023-03-01T06:12:56;6.00;73.00
16402;DHT22;8310;44.626;11.176;2023-03-01T06:15:25;6.10;72.80
16402;DHT22;8310;44.626;11.176;2023-03-01T06:17:55;6.10;72.50
16402;DHT22;8310;44.626;11.176;2023-03-01T06:20:25;6.10;73.30
16402;DHT22;8310;44.626;11.176;2023-03-01T06:22:53;6.10;72.00
16402;DHT22;8310;44.626;11.176;2023-03-01T06:25:25;6.10;71.10
16402;DHT22;8310;44.626;11.176;2023-03-01T06:27:53;6.20;71.30
16402;DHT22;8310;44.626;11.176;2023-03-01T06:30:22;6.20;70.60
16402;DHT22;8310;44.626;11.176;2023-03-01T06:32:51;6.20;70.90
16402;DHT22;8310;44.626;11.176;2023-03-01T06:35:19;6.20;71.90
16402;DHT22;8310;44.626;11.176;2023-03-01T06:37:46;6.20;72.00
16402;DHT22;8310;44.626;11.176;2023-03-01T06:40:15;6.20;72.90
16402;DHT22;8310;44.626;11.176;2023-03-01T06:42:48;6.20;72.50
16402;DHT22;8310;44.626;11.176;2023-03-01T06:45:18;6.20;72.90
16402;DHT22;8310;44.626;11.176;2023-03-01T06:47:47;6.20;74.10
16402;DHT22;8310;44.626;11.176;2023-03-01T06:50:16;6.20;72.30
16402;DHT22;8310;44.626;11.176;2023-03-01T06:52:44;6.20;74.10
16402;DHT22;8310;44.626;11.176;2023-03-01T06:55:13;6.20;74.40
16402;DHT22;8310;44.626;11.176;2023-03-01T06:57:42;6.10;75.10
16402;DHT22;8310;44.626;11.176;2023-03-01T07:00:13;6.10;75.50
16402;DHT22;8310;44.626;11.176;2023-03-01T07:02:40;6.10;75.70
16402;DHT22;8310;44.626;11.176;2023-03-01T07:05:08;6.10;76.10
16402;DHT22;8310;44.626;11.176;2023-03-01T07:07:36;6.10;75.40
16402;DHT22;8310;44.626;11.176;2023-03-01T07:10:04;6.10;73.40
16402;DHT22;8310;44.626;11.176;2023-03-01T07:12:32;6.10;74.90
16402;DHT22;8310;44.626;11.176;2023-03-01T07:15:00;6.10;75.40
16402;DHT22;8310;44.626;11.176;2023-03-01T07:17:30;6.10;75.80
16402;DHT22;8310;44.626;11.176;2023-03-01T07:19:57;6.10;75.70
16402;DHT22;8310;44.626;11.176;2023-03-01T07:22:25;6.10;76.00
16402;DHT22;8310;44.626;11.176;2023-03-01T07:24:53;6.10;76.00
16402;DHT22;8310;44.626;11.176;2023-03-01T07:27:21;6.10;76.00
16402;DHT22;8310;44.626;11.176;2023-03-01T07:29:49;6.20;76.50
16402;DHT22;8310;44.626;11.176;2023-03-01T07:32:16;6.20;76.80
16402;DHT22;8310;44.626;11.176;2023-03-01T07:34:45;6.20;76.70
16402;DHT22;8310;44.626;11.176;2023-03-01T07:37:13;6.20;76.60
16402;DHT22;8310;44.626;11.176;2023-03-01T07:39:41;6.20;77.00
16402;DHT22;8310;44.626;11.176;2023-03-01T07:42:09;6.20;77.00
16402;DHT22;8310;44.626;11.176;2023-03-01T07:44:37;6.20;76.90
16402;DHT22;8310;44.626;11.176;2023-03-01T07:47:05;6.20;77.60
16402;DHT22;8310;44.626;11.176;2023-03-01T07:49:34;6.20;77.80
16402;DHT22;8310;44.626;11.176;2023-03-01T07:52:04;6.30;78.00
16402;DHT22;8310;44.626;11.176;2023-03-01T07:54:32;6.20;76.90
16402;DHT22;8310;44.626;11.176;2023-03-01T07:56:59;6.30;77.10
16402;DHT22;8310;44.626;11.176;2023-03-01T07:59:27;6.20;76.90
16402;DHT22;8310;44.626;11.176;2023-03-01T08:01:55;6.30;77.40
16402;DHT22;8310;44.626;11.176;2023-03-01T08:04:23;6.20;78.00
16402;DHT22;8310;44.626;11.176;2023-03-01T08:06:52;6.20;77.60
16402;DHT22;8310;44.626;11.176;2023-03-01T08:09:22;6.30;77.50
16402;DHT22;8310;44.626;11.176;2023-03-01T08:11:49;6.30;77.60
16402;DHT22;8310;44.626;11.176;2023-03-01T08:14:17;6.30;78.10
16402;DHT22;8310;44.626;11.176;2023-03-01T08:19:49;6.30;78.40
16402;DHT22;8310;44.626;11.176;2023-03-01T08:22:17;6.30;78.50
16402;DHT22;8310;44.626;11.176;2023-03-01T08:24:46;6.30;78.70
16402;DHT22;8310;44.626;11.176;2023-03-01T08:27:15;6.30;79.50
16402;DHT22;8310;44.626;11.176;2023-03-01T08:29:43;6.20;79.70
16402;DHT22;8310;44.626;11.176;2023-03-01T08:32:11;6.20;79.30
16402;DHT22;8310;44.626;11.176;2023-03-01T08:34:38;6.20;79.60
16402;DHT22;8310;44.626;11.176;2023-03-01T08:37:06;6.10;80.20
16402;DHT22;8310;44.626;11.176;2023-03-01T08:39:33;6.10;79.70
16402;DHT22;8310;44.626;11.176;2023-03-01T08:42:03;6.10;80.80
16402;DHT22;8310;44.626;11.176;2023-03-01T08:44:31;5.90;80.80
16402;DHT22;8310;44.626;11.176;2023-03-01T08:46:59;5.90;81.20
16402;DHT22;8310;44.626;11.176;2023-03-01T08:49:28;5.90;82.00
16402;DHT22;8310;44.626;11.176;2023-03-01T08:51:55;5.80;81.70
16402;DHT22;8310;44.626;11.176;2023-03-01T08:54:26;5.80;82.30
16402;DHT22;8310;44.626;11.176;2023-03-01T08:56:53;5.80;82.50
16402;DHT22;8310;44.626;11.176;2023-03-01T08:59:22;5.80;81.60
16402;DHT22;8310;44.626;11.176;2023-03-01T09:01:50;5.80;82.60
16402;DHT22;8310;44.626;11.176;2023-03-01T09:04:18;5.80;83.20
16402;DHT22;8310;44.626;11.176;2023-03-01T09:06:45;5.80;83.50
16402;DHT22;8310;44.626;11.176;2023-03-01T09:09:14;5.80;83.70
16402;DHT22;8310;44.626;11.176;2023-03-01T09:11:42;5.80;83.60
16402;DHT22;8310;44.626;11.176;2023-03-01T09:14:11;5.80;83.70
16402;DHT22;8310;44.626;11.176;2023-03-01T09:16:41;5.80;83.90
16402;DHT22;8310;44.626;11.176;2023-03-01T09:19:09;5.80;84.10
16402;DHT22;8310;44.626;11.176;2023-03-01T09:21:37;5.90;83.20
16402;DHT22;8310;44.626;11.176;2023-03-01T09:24:06;5.90;84.80
16402;DHT22;8310;44.626;11.176;2023-03-01T09:26:34;5.90;84.00
16402;DHT22;8310;44.626;11.176;2023-03-01T09:29:01;5.90;84.20
16402;DHT22;8310;44.626;11.176;2023-03-01T09:31:29;5.90;84.00
16402;DHT22;8310;44.626;11.176;2023-03-01T09:33:59;5.90;83.50
16402;DHT22;8310;44.626;11.176;2023-03-01T09:36:27;5.90;83.40
16402;DHT22;8310;44.626;11.176;2023-03-01T09:39:01;5.90;83.60
16402;DHT22;8310;44.626;11.176;2023-03-01T09:41:43;5.90;83.20
16402;DHT22;8310;44.626;11.176;2023-03-01T09:44:18;6.00;82.50
16402;DHT22;8310;44.626;11.176;2023-03-01T09:46:48;6.00;83.60
16402;DHT22;8310;44.626;11.176;2023-03-01T09:49:19;6.00;83.40
16402;DHT22;8310;44.626;11.176;2023-03-01T09:51:55;6.00;82.90
16402;DHT22;8310;44.626;11.176;2023-03-01T09:54:23;6.10;82.70
16402;DHT22;8310;44.626;11.176;2023-03-01T09:57:06;6.10;82.80
16402;DHT22;8310;44.626;11.176;2023-03-01T09:59:48;6.10;82.70
16402;DHT22;8310;44.626;11.176;2023-03-01T10:02:31;6.10;82.60
16402;DHT22;8310;44.626;11.176;2023-03-01T10:08:02;6.10;83.30
16402;DHT22;8310;44.626;11.176;2023-03-01T10:10:34;6.10;83.00
16402;DHT22;8310;44.626;11.176;2023-03-01T10:13:07;6.10;83.10
16402;DHT22;8310;44.626;11.176;2023-03-01T10:15:41;6.10;83.80
16402;DHT22;8310;44.626;11.176;2023-03-01T10:18:14;6.00;84.00
16402;DHT22;8310;44.626;11.176;2023-03-01T10:20:48;6.00;83.50
16402;DHT22;8310;44.626;11.176;2023-03-01T10:23:19;6.00;83.60
16402;DHT22;8310;44.626;11.176;2023-03-01T10:25:56;6.10;83.60
16402;DHT22;8310;44.626;11.176;2023-03-01T10:28:29;6.10;83.80
16402;DHT22;8310;44.626;11.176;2023-03-01T10:30:59;6.10;82.90
16402;DHT22;8310;44.626;11.176;2023-03-01T10:33:28;6.20;81.50
16402;DHT22;8310;44.626;11.176;2023-03-01T10:35:58;6.20;80.60
16402;DHT22;8310;44.626;11.176;2023-03-01T10:38:26;6.30;82.80
16402;DHT22;8310;44.626;11.176;2023-03-01T10:40:56;6.30;82.00
16402;DHT22;8310;44.626;11.176;2023-03-01T10:43:25;6.40;81.20
16402;DHT22;8310;44.626;11.176;2023-03-01T10:45:54;6.40;81.20
16402;DHT22;8310;44.626;11.176;2023-03-01T10:48:23;6.40;82.10
16402;DHT22;8310;44.626;11.176;2023-03-01T10:51:06;6.40;80.70
16402;DHT22;8310;44.626;11.176;2023-03-01T10:53:36;6.40;82.30
16402;DHT22;8310;44.626;11.176;2023-03-01T10:56:07;6.30;82.10
16402;DHT22;8310;44.626;11.176;2023-03-01T10:58:36;6.30;81.90
16402;DHT22;8310;44.626;11.176;2023-03-01T11:01:06;6.30;82.20
16402;DHT22;8310;44.626;11.176;2023-03-01T11:04:09;6.30;81.30
16402;DHT22;8310;44.626;11.176;2023-03-01T11:06:40;6.20;81.90
16402;DHT22;8310;44.626;11.176;2023-03-01T11:09:15;6.20;82.10
16402;DHT22;8310;44.626;11.176;2023-03-01T11:11:44;6.20;82.70
16402;DHT22;8310;44.626;11.176;2023-03-01T11:14:16;6.10;82.10
16402;DHT22;8310;44.626;11.176;2023-03-01T11:16:45;6.10;82.00
16402;DHT22;8310;44.626;11.176;2023-03-01T11:19:17;6.10;83.00
16402;DHT22;8310;44.626;11.176;2023-03-01T11:21:55;6.10;82.80
16402;DHT22;8310;44.626;11.176;2023-03-01T11:24:29;6.10;81.90
16402;DHT22;8310;44.626;11.176;2023-03-01T11:27:01;6.10;81.90
16402;DHT22;8310;44.626;11.176;2023-03-01T11:29:35;6.10;81.80
16402;DHT22;8310;44.626;11.176;2023-03-01T11:32:07;6.10;81.50
16402;DHT22;8310;44.626;11.176;2023-03-01T11:34:42;6.10;81.70
16402;DHT22;8310;44.626;11.176;2023-03-01T11:37:21;6.00;82.30
16402;DHT22;8310;44.626;11.176;2023-03-01T11:39:56;5.90;82.00
16402;DHT22;8310;44.626;11.176;2023-03-01T11:42:35;6.00;81.40
16402;DHT22;8310;44.626;11.176;2023-03-01T11:45:09;6.00;81.70
16402;DHT22;8310;44.626;11.176;2023-03-01T11:47:55;6.00;81.70
16402;DHT22;8310;44.626;11.176;2023-03-01T11:50:30;6.00;82.40
16402;DHT22;8310;44.626;11.176;2023-03-01T11:53:19;6.00;81.40
16402;DHT22;8310;44.626;11.176;2023-03-01T11:56:03;5.90;81.80
16402;DHT22;8310;44.626;11.176;2023-03-01T11:58:59;5.90;81.70
16402;DHT22;8310;44.626;11.176;2023-03-01T12:01:38;5.90;81.50
16402;DHT22;8310;44.626;11.176;2023-03-01T12:07:18;5.90;81.40
16402;DHT22;8310;44.626;11.176;2023-03-01T12:10:14;5.80;80.10
16402;DHT22;8310;44.626;11.176;2023-03-01T12:15:58;5.90;77.40
16402;DHT22;8310;44.626;11.176;2023-03-01T12:21:30;5.90;77.30
16402;DHT22;8310;44.626;11.176;2023-03-01T12:24:21;5.90;76.70
16402;DHT22;8310;44.626;11.176;2023-03-01T12:27:09;5.90;76.20
16402;DHT22;8310;44.626;11.176;2023-03-01T12:29:44;5.80;75.90
16402;DHT22;8310;44.626;11.176;2023-03-01T12:32:35;5.80;77.30
16402;DHT22;8310;44.626;11.176;2023-03-01T12:35:35;5.80;77.00
16402;DHT22;8310;44.626;11.176;2023-03-01T12:38:19;5.80;75.90
16402;DHT22;8310;44.626;11.176;2023-03-01T12:41:13;5.80;76.50
16402;DHT22;8310;44.626;11.176;2023-03-01T12:43:53;5.70;76.20
16402;DHT22;8310;44.626;11.176;2023-03-01T12:46:37;5.70;76.90
16402;DHT22;8310;44.626;11.176;2023-03-01T12:49:09;5.60;75.60
16402;DHT22;8310;44.626;11.176;2023-03-01T12:51:38;5.50;76.20
16402;DHT22;8310;44.626;11.176;2023-03-01T12:54:09;5.50;78.30
16402;DHT22;8310;44.626;11.176;2023-03-01T12:56:38;5.50;79.50
16402;DHT22;8310;44.626;11.176;2023-03-01T12:59:13;5.40;79.70
16402;DHT22;8310;44.626;11.176;2023-03-01T13:01:46;5.40;80.00
16402;DHT22;8310;44.626;11.176;2023-03-01T13:04:28;5.40;79.50
16402;DHT22;8310;44.626;11.176;2023-03-01T13:07:10;5.40;81.20
16402;DHT22;8310;44.626;11.176;2023-03-01T13:09:40;5.30;79.80
16402;DHT22;8310;44.626;11.176;2023-03-01T13:12:46;5.30;78.40
16402;DHT22;8310;44.626;11.176;2023-03-01T13:15:33;5.20;77.10
16402;DHT22;8310;44.626;11.176;2023-03-01T13:18:02;5.20;78.70
16402;DHT22;8310;44.626;11.176;2023-03-01T13:20:33;5.10;78.60
16402;DHT22;8310;44.626;11.176;2023-03-01T13:23:04;5.10;79.20
16402;DHT22;8310;44.626;11.176;2023-03-01T13:26:05;5.00;79.10
16402;DHT22;8310;44.626;11.176;2023-03-01T13:28:40;4.90;79.20
16402;DHT22;8310;44.626;11.176;2023-03-01T13:31:09;4.90;79.10
16402;DHT22;8310;44.626;11.176;2023-03-01T13:33:43;4.80;79.30
16402;DHT22;8310;44.626;11.176;2023-03-01T13:36:13;4.80;79.60
16402;DHT22;8310;44.626;11.176;2023-03-01T13:39:04;4.80;79.20
16402;DHT22;8310;44.626;11.176;2023-03-01T13:41:50;4.70;79.00
16402;DHT22;8310;44.626;11.176;2023-03-01T13:44:23;4.70;79.60
16402;DHT22;8310;44.626;11.176;2023-03-01T13:46:57;4.60;79.50
16402;DHT22;8310;44.626;11.176;2023-03-01T13:49:28;4.60;79.80
16402;DHT22;8310;44.626;11.176;2023-03-01T13:51:57;4.60;80.50
16402;DHT22;8310;44.626;11.176;2023-03-01T13:54:29;4.50;80.80
16402;DHT22;8310;44.626;11.176;2023-03-01T13:56:59;4.50;81.50
16402;DHT22;8310;44.626;11.176;2023-03-01T13:59:28;4.40;81.60
16402;DHT22;8310;44.626;11.176;2023-03-01T14:02:00;4.40;81.50
16402;DHT22;8310;44.626;11.176;2023-03-01T14:04:30;4.40;82.40
16402;DHT22;8310;44.626;11.176;2023-03-01T14:07:11;4.40;81.50
16402;DHT22;8310;44.626;11.176;2023-03-01T14:09:41;4.40;82.30
16402;DHT22;8310;44.626;11.176;2023-03-01T14:12:32;4.40;82.40
16402;DHT22;8310;44.626;11.176;2023-03-01T14:15:05;4.40;82.10
16402;DHT22;8310;44.626;11.176;2023-03-01T14:17:57;4.40;82.90
16402;DHT22;8310;44.626;11.176;2023-03-01T14:20:28;4.40;83.10
16402;DHT22;8310;44.626;11.176;2023-03-01T14:22:59;4.40;83.00
16402;DHT22;8310;44.626;11.176;2023-03-01T14:25:29;4.40;83.10
16402;DHT22;8310;44.626;11.176;2023-03-01T14:28:10;4.40;83.30
16402;DHT22;8310;44.626;11.176;2023-03-01T14:30:42;4.40;83.20
16402;DHT22;8310;44.626;11.176;2023-03-01T14:33:21;4.40;83.10
16402;DHT22;8310;44.626;11.176;2023-03-01T14:35:54;4.40;83.60
16402;DHT22;8310;44.626;11.176;2023-03-01T14:38:28;4.40;83.60
16402;DHT22;8310;44.626;11.176;2023-03-01T14:40:59;4.40;83.90
16402;DHT22;8310;44.626;11.176;2023-03-01T14:43:32;4.40;84.00
16402;DHT22;8310;44.626;11.176;2023-03-01T14:46:00;4.40;83.70
16402;DHT22;8310;44.626;11.176;2023-03-01T14:48:30;4.40;84.00
16402;DHT22;8310;44.626;11.176;2023-03-01T14:50:58;4.40;84.30
16402;DHT22;8310;44.626;11.176;2023-03-01T14:53:28;4.40;84.10
16402;DHT22;8310;44.626;11.176;2023-03-01T14:56:00;4.40;84.50
16402;DHT22;8310;44.626;11.176;2023-03-01T14:58:29;4.30;84.20
16402;DHT22;8310;44.626;11.176;2023-03-01T15:01:00;4.40;85.00
16402;DHT22;8310;44.626;11.176;2023-03-01T15:03:33;4.30;84.50
16402;DHT22;8310;44.626;11.176;2023-03-01T15:06:04;4.40;85.20
16402;DHT22;8310;44.626;11.176;2023-03-01T15:08:33;4.30;84.70
16402;DHT22;8310;44.626;11.176;2023-03-01T15:11:04;4.40;84.60
16402;DHT22;8310;44.626;11.176;2023-03-01T15:13:41;4.40;84.40
16402;DHT22;8310;44.626;11.176;2023-03-01T15:16:11;4.40;84.20
16402;DHT22;8310;44.626;11.176;2023-03-01T15:18:46;4.40;84.60
16402;DHT22;8310;44.626;11.176;2023-03-01T15:21:18;4.40;84.20
16402;DHT22;8310;44.626;11.176;2023-03-01T15:23:50;4.50;84.60
16402;DHT22;8310;44.626;11.176;2023-03-01T15:26:24;4.50;85.00
16402;DHT22;8310;44.626;11.176;2023-03-01T15:28:53;4.40;85.50
16402;DHT22;8310;44.626;11.176;2023-03-01T15:31:25;4.40;85.30
16402;DHT22;8310;44.626;11.176;2023-03-01T15:34:08;4.40;85.60
16402;DHT22;8310;44.626;11.176;2023-03-01T15:36:44;4.40;85.30
16402;DHT22;8310;44.626;11.176;2023-03-01T15:39:33;4.40;86.20
16402;DHT22;8310;44.626;11.176;2023-03-01T15:42:04;4.40;86.40
16402;DHT22;8310;44.626;11.176;2023-03-01T15:44:34;4.40;86.50
16402;DHT22;8310;44.626;11.176;2023-03-01T15:47:02;4.40;85.70
16402;DHT22;8310;44.626;11.176;2023-03-01T15:49:37;4.40;85.00
16402;DHT22;8310;44.626;11.176;2023-03-01T15:52:08;4.50;85.80
16402;DHT22;8310;44.626;11.176;2023-03-01T15:54:39;4.50;85.80
16402;DHT22;8310;44.626;11.176;2023-03-01T15:57:10;4.50;85.90
16402;DHT22;8310;44.626;11.176;2023-03-01T15:59:39;4.50;86.80
16402;DHT22;8310;44.626;11.176;2023-03-01T16:02:09;4.50;86.50
16402;DHT22;8310;44.626;11.176;2023-03-01T16:04:40;4.40;86.80
16402;DHT22;8310;44.626;11.176;2023-03-01T16:07:09;4.40;86.50
16402;DHT22;8310;44.626;11.176;2023-03-01T16:09:36;4.40;86.90
16402;DHT22;8310;44.626;11.176;2023-03-01T16:12:08;4.40;86.60
16402;DHT22;8310;44.626;11.176;2023-03-01T16:14:38;4.40;87.00
16402;DHT22;8310;44.626;11.176;2023-03-01T16:17:05;4.40;87.20
16402;DHT22;8310;44.626;11.176;2023-03-01T16:19:35;4.30;87.60
16402;DHT22;8310;44.626;11.176;2023-03-01T16:22:04;4.30;87.80
16402;DHT22;8310;44.626;11.176;2023-03-01T16:24:32;4.30;87.30
16402;DHT22;8310;44.626;11.176;2023-03-01T16:27:01;4.40;87.00